createdAt,value
2022-12-01T00:00:37.833Z,938.96
2022-12-01T00:01:38.077Z,938.93
2022-12-01T00:02:38.454Z,938.92
2022-12-01T00:03:39.347Z,938.89
2022-12-01T00:04:40.247Z,938.92
2022-12-01T00:05:40.430Z,938.89
2022-12-01T00:06:41.345Z,938.88
2022-12-01T00:07:42.043Z,938.91
2022-12-01T00:08:42.955Z,938.88
2022-12-01T00:09:43.377Z,938.9
2022-12-01T00:10:44.137Z,938.84
2022-12-01T00:11:44.345Z,938.85
2022-12-01T00:12:44.851Z,938.83
2022-12-01T00:13:45.459Z,938.83
2022-12-01T00:14:46.374Z,938.79
2022-12-01T00:15:46.988Z,938.81
2022-12-01T00:16:47.338Z,938.79
2022-12-01T00:17:47.530Z,938.8
2022-12-01T00:18:47.796Z,938.78
2022-12-01T00:19:48.870Z,938.79
2022-12-01T00:20:49.684Z,938.82
2022-12-01T00:21:50.576Z,938.84
2022-12-01T00:22:50.908Z,938.81
2022-12-01T00:23:51.945Z,938.8
2022-12-01T00:24:52.939Z,938.81
2022-12-01T00:25:53.834Z,938.8
2022-12-01T00:26:54.766Z,938.81
2022-12-01T00:27:54.977Z,938.8
2022-12-01T00:28:55.162Z,938.79
2022-12-01T00:29:55.648Z,938.82
2022-12-01T00:30:56.388Z,938.8
2022-12-01T00:31:57.106Z,938.81
2022-12-01T00:32:58.106Z,938.78
2022-12-01T00:33:58.424Z,938.79
2022-12-01T00:34:58.922Z,938.8
2022-12-01T00:35:59.809Z,938.76
2022-12-01T00:37:00.287Z,938.79
2022-12-01T00:38:01.205Z,938.76
2022-12-01T00:39:01.394Z,938.76
2022-12-01T00:40:02.342Z,938.82
2022-12-01T00:41:03.055Z,938.77
2022-12-01T00:42:04.686Z,938.82
2022-12-01T00:43:04.059Z,938.77
2022-12-01T00:44:04.946Z,938.81
2022-12-01T00:45:05.566Z,938.82
2022-12-01T00:46:06.504Z,938.82
2022-12-01T00:47:06.745Z,938.82
2022-12-01T00:48:06.926Z,938.85
2022-12-01T00:49:07.482Z,938.83
2022-12-01T00:50:07.964Z,938.83
2022-12-01T00:51:08.687Z,938.79
2022-12-01T00:52:09.299Z,938.82
2022-12-01T00:53:10.204Z,938.85
2022-12-01T00:54:10.688Z,938.87
2022-12-01T00:55:11.630Z,938.83
2022-12-01T00:56:12.266Z,938.83
2022-12-01T00:57:12.465Z,938.86
2022-12-01T00:58:13.103Z,938.85
2022-12-01T00:59:14.018Z,938.87
2022-12-01T01:00:14.441Z,938.85
2022-12-01T01:01:14.958Z,938.88
2022-12-01T01:02:15.929Z,938.87
2022-12-01T01:03:16.532Z,938.87
2022-12-01T01:04:17.087Z,938.85
2022-12-01T01:05:17.982Z,938.85
2022-12-01T01:06:18.173Z,938.86
2022-12-01T01:07:18.358Z,938.82
2022-12-01T01:08:19.144Z,938.84
2022-12-01T01:09:19.335Z,938.85
2022-12-01T01:10:20.381Z,938.85
2022-12-01T01:11:20.954Z,938.86
2022-12-01T01:12:21.145Z,938.85
2022-12-01T01:13:21.349Z,938.85
2022-12-01T01:14:21.968Z,938.81
2022-12-01T01:15:22.876Z,938.87
2022-12-01T01:16:23.530Z,938.83
2022-12-01T01:17:24.110Z,938.83
2022-12-01T01:18:24.755Z,938.8
2022-12-01T01:19:25.005Z,938.81
2022-12-01T01:20:25.900Z,938.84
2022-12-01T01:21:26.901Z,938.82
2022-12-01T01:22:27.103Z,938.8
2022-12-01T01:23:27.596Z,938.81
2022-12-01T01:24:27.777Z,938.78
2022-12-01T01:25:28.021Z,938.79
2022-12-01T01:26:28.295Z,938.78
2022-12-01T01:27:28.611Z,938.84
2022-12-01T01:28:29.538Z,938.77
2022-12-01T01:29:29.743Z,938.77
2022-12-01T01:30:30.595Z,938.77
2022-12-01T01:31:30.677Z,938.76
2022-12-01T01:32:30.862Z,938.79
2022-12-01T01:33:31.350Z,938.82
2022-12-01T01:34:31.611Z,938.77
2022-12-01T01:35:32.519Z,938.74
2022-12-01T01:36:33.156Z,938.77
2022-12-01T01:37:34.050Z,938.76
2022-12-01T01:38:34.233Z,938.75
2022-12-01T01:39:34.438Z,938.76
2022-12-01T01:40:34.911Z,938.75
2022-12-01T01:41:35.937Z,938.78
2022-12-01T01:42:36.873Z,938.75
2022-12-01T01:43:37.469Z,938.73
2022-12-01T01:44:37.700Z,938.71
2022-12-01T01:45:37.948Z,938.78
2022-12-01T01:46:38.500Z,938.79
2022-12-01T01:47:39.389Z,938.76
2022-12-01T01:48:39.569Z,938.79
2022-12-01T01:49:39.813Z,938.77
2022-12-01T01:50:40.337Z,938.76
2022-12-01T01:51:41.034Z,938.73
2022-12-01T01:52:41.672Z,938.76
2022-12-01T01:53:42.559Z,938.76
2022-12-01T01:54:42.744Z,938.75
2022-12-01T01:55:43.665Z,938.81
2022-12-01T01:56:44.569Z,938.79
2022-12-01T01:57:44.756Z,938.76
2022-12-01T01:58:44.948Z,938.75
2022-12-01T01:59:45.967Z,938.76
2022-12-01T02:00:46.948Z,938.77
2022-12-01T02:01:47.185Z,938.77
2022-12-01T02:02:47.515Z,938.78
2022-12-01T02:03:48.424Z,938.73
2022-12-01T02:04:48.796Z,938.75
2022-12-01T02:05:49.420Z,938.78
2022-12-01T02:06:50.319Z,938.79
2022-12-01T02:07:50.996Z,938.74
2022-12-01T02:08:51.564Z,938.77
2022-12-01T02:09:51.889Z,938.76
2022-12-01T02:10:52.209Z,938.76
2022-12-01T02:11:53.202Z,938.83
2022-12-01T02:12:53.390Z,938.78
2022-12-01T02:13:54.006Z,938.77
2022-12-01T02:14:54.187Z,938.74
2022-12-01T02:15:54.683Z,938.71
2022-12-01T02:16:55.117Z,938.7
2022-12-01T02:17:55.972Z,938.69
2022-12-01T02:18:56.318Z,938.69
2022-12-01T02:19:56.882Z,938.67
2022-12-01T02:20:57.093Z,938.68
2022-12-01T02:21:57.659Z,938.69
2022-12-01T02:22:58.550Z,938.67
2022-12-01T02:23:59.442Z,938.7
2022-12-01T02:24:59.675Z,938.7
2022-12-01T02:25:59.897Z,938.71
2022-12-01T02:27:00.388Z,938.69
2022-12-01T02:28:00.697Z,938.7
2022-12-01T02:29:01.603Z,938.71
2022-12-01T02:30:02.502Z,938.7
2022-12-01T02:31:03.174Z,938.74
2022-12-01T02:32:04.183Z,938.7
2022-12-01T02:33:04.372Z,938.69
2022-12-01T02:34:04.989Z,938.71
2022-12-01T02:35:05.539Z,938.74
2022-12-01T02:36:06.143Z,938.73
2022-12-01T02:37:07.035Z,938.73
2022-12-01T02:38:07.931Z,938.73
2022-12-01T02:39:08.127Z,938.72
2022-12-01T02:40:08.359Z,938.72
2022-12-01T02:41:08.884Z,938.73
2022-12-01T02:42:09.619Z,938.73
2022-12-01T02:43:10.102Z,938.69
2022-12-01T02:44:11.007Z,938.7
2022-12-01T02:45:11.324Z,938.67
2022-12-01T02:46:11.853Z,938.74
2022-12-01T02:47:12.156Z,938.7
2022-12-01T02:48:12.759Z,938.71
2022-12-01T02:49:13.400Z,938.67
2022-12-01T02:50:14.371Z,938.66
2022-12-01T02:51:14.570Z,938.68
2022-12-01T02:52:14.995Z,938.7
2022-12-01T02:53:15.921Z,938.69
2022-12-01T02:54:16.542Z,938.7
2022-12-01T02:55:16.731Z,938.67
2022-12-01T02:56:17.284Z,938.64
2022-12-01T02:57:17.492Z,938.66
2022-12-01T02:58:17.730Z,938.65
2022-12-01T02:59:18.206Z,938.64
2022-12-01T03:00:18.817Z,938.68
2022-12-01T03:01:19.924Z,938.67
2022-12-01T03:02:20.115Z,938.65
2022-12-01T03:03:20.296Z,938.67
2022-12-01T03:04:21.196Z,938.64
2022-12-01T03:05:22.155Z,938.66
2022-12-01T03:06:22.364Z,938.62
2022-12-01T03:07:23.302Z,938.64
2022-12-01T03:08:23.840Z,938.61
2022-12-01T03:09:24.750Z,938.67
2022-12-01T03:10:25.657Z,938.63
2022-12-01T03:11:25.977Z,938.65
2022-12-01T03:12:26.467Z,938.66
2022-12-01T03:13:26.956Z,938.64
2022-12-01T03:14:27.847Z,938.66
2022-12-01T03:15:28.032Z,938.64
2022-12-01T03:16:28.285Z,938.63
2022-12-01T03:17:28.628Z,938.62
2022-12-01T03:18:29.535Z,938.62
2022-12-01T03:19:30.169Z,938.64
2022-12-01T03:20:30.588Z,938.61
2022-12-01T03:21:31.481Z,938.62
2022-12-01T03:22:31.899Z,938.59
2022-12-01T03:23:32.241Z,938.55
2022-12-01T03:24:32.841Z,938.58
2022-12-01T03:25:33.743Z,938.57
2022-12-01T03:26:33.960Z,938.56
2022-12-01T03:27:34.846Z,938.6
2022-12-01T03:28:35.492Z,938.55
2022-12-01T03:29:36.416Z,938.58
2022-12-01T03:30:37.141Z,938.54
2022-12-01T03:31:37.277Z,938.55
2022-12-01T03:32:38.204Z,938.54
2022-12-01T03:33:38.832Z,938.55
2022-12-01T03:34:39.043Z,938.57
2022-12-01T03:35:39.580Z,938.55
2022-12-01T03:36:39.795Z,938.54
2022-12-01T03:37:40.704Z,938.54
2022-12-01T03:38:40.896Z,938.55
2022-12-01T03:39:41.528Z,938.51
2022-12-01T03:40:42.036Z,938.56
2022-12-01T03:41:42.555Z,938.56
2022-12-01T03:42:42.842Z,938.55
2022-12-01T03:43:43.033Z,938.59
2022-12-01T03:44:43.211Z,938.59
2022-12-01T03:45:44.099Z,938.54
2022-12-01T03:46:44.279Z,938.55
2022-12-01T03:47:44.922Z,938.58
2022-12-01T03:48:45.818Z,938.58
2022-12-01T03:49:46.101Z,938.61
2022-12-01T03:50:46.761Z,938.61
2022-12-01T03:51:47.646Z,938.62
2022-12-01T03:52:48.641Z,938.61
2022-12-01T03:53:49.256Z,938.62
2022-12-01T03:54:50.186Z,938.6
2022-12-01T03:55:51.092Z,938.66
2022-12-01T03:56:51.312Z,938.61
2022-12-01T03:57:51.924Z,938.64
2022-12-01T03:58:52.111Z,938.6
2022-12-01T03:59:52.747Z,938.65
2022-12-01T04:00:53.641Z,938.68
2022-12-01T04:01:54.301Z,938.67
2022-12-01T04:02:54.814Z,938.68
2022-12-01T04:03:55.153Z,938.67
2022-12-01T04:04:56.065Z,938.65
2022-12-01T04:05:56.605Z,938.64
2022-12-01T04:06:57.524Z,938.65
2022-12-01T04:07:57.750Z,938.68
2022-12-01T04:08:57.947Z,938.62
2022-12-01T04:09:58.859Z,938.62
2022-12-01T04:10:59.765Z,938.65
2022-12-01T04:12:00.189Z,938.65
2022-12-01T04:13:00.750Z,938.6
2022-12-01T04:14:01.088Z,938.69
2022-12-01T04:15:01.744Z,938.65
2022-12-01T04:16:02.706Z,938.66
2022-12-01T04:17:03.179Z,938.63
2022-12-01T04:18:03.810Z,938.61
2022-12-01T04:19:04.301Z,938.62
2022-12-01T04:20:04.925Z,938.61
2022-12-01T04:21:05.169Z,938.61
2022-12-01T04:22:05.790Z,938.6
2022-12-01T04:23:06.803Z,938.62
2022-12-01T04:24:07.121Z,938.64
2022-12-01T04:25:08.029Z,938.61
2022-12-01T04:26:12.707Z,938.63
2022-12-01T04:27:09.135Z,938.62
2022-12-01T04:28:09.471Z,938.63
2022-12-01T04:29:09.681Z,938.64
2022-12-01T04:30:10.163Z,938.66
2022-12-01T04:31:10.420Z,938.65
2022-12-01T04:32:11.324Z,938.6
2022-12-01T04:33:12.315Z,938.64
2022-12-01T04:34:13.198Z,938.66
2022-12-01T04:35:13.824Z,938.69
2022-12-01T04:36:14.774Z,938.64
2022-12-01T04:37:14.965Z,938.65
2022-12-01T04:38:15.151Z,938.67
2022-12-01T04:39:15.655Z,938.63
2022-12-01T04:40:15.970Z,938.69
2022-12-01T04:41:16.156Z,938.67
2022-12-01T04:42:16.285Z,938.67
2022-12-01T04:43:16.608Z,938.67
2022-12-01T04:44:16.951Z,938.63
2022-12-01T04:45:17.625Z,938.66
2022-12-01T04:46:18.564Z,938.64
2022-12-01T04:47:19.408Z,938.66
2022-12-01T04:48:19.593Z,938.68
2022-12-01T04:49:19.807Z,938.66
2022-12-01T04:50:20.292Z,938.65
2022-12-01T04:51:20.573Z,938.67
2022-12-01T04:52:20.773Z,938.61
2022-12-01T04:53:21.107Z,938.64
2022-12-01T04:54:22.019Z,938.64
2022-12-01T04:55:22.238Z,938.7
2022-12-01T04:56:22.427Z,938.64
2022-12-01T04:57:22.944Z,938.65
2022-12-01T04:58:23.181Z,938.62
2022-12-01T04:59:23.660Z,938.68
2022-12-01T05:00:24.315Z,938.66
2022-12-01T05:01:24.759Z,938.64
2022-12-01T05:02:25.649Z,938.66
2022-12-01T05:03:26.377Z,938.63
2022-12-01T05:04:26.704Z,938.64
2022-12-01T05:05:27.318Z,938.68
2022-12-01T05:06:27.991Z,938.68
2022-12-01T05:07:28.189Z,938.7
2022-12-01T05:08:28.482Z,938.7
2022-12-01T05:09:29.126Z,938.72
2022-12-01T05:10:29.755Z,938.68
2022-12-01T05:11:30.240Z,938.68
2022-12-01T05:12:31.147Z,938.72
2022-12-01T05:13:31.653Z,938.71
2022-12-01T05:14:32.145Z,938.74
2022-12-01T05:15:32.358Z,938.72
2022-12-01T05:16:32.623Z,938.75
2022-12-01T05:17:36.890Z,938.73
2022-12-01T05:18:33.771Z,938.73
2022-12-01T05:19:34.290Z,938.74
2022-12-01T05:20:35.324Z,938.75
2022-12-01T05:21:35.881Z,938.76
2022-12-01T05:23:03.591Z,938.75
2022-12-01T05:23:59.932Z,938.76
2022-12-01T05:25:00.530Z,938.81
2022-12-01T05:26:01.437Z,938.78
2022-12-01T05:27:02.340Z,938.8
2022-12-01T05:28:02.966Z,938.79
2022-12-01T05:29:03.184Z,938.82
2022-12-01T05:30:03.378Z,938.79
2022-12-01T05:31:03.782Z,938.82
2022-12-01T05:32:04.312Z,938.82
2022-12-01T05:33:04.996Z,938.81
2022-12-01T05:34:05.396Z,938.87
2022-12-01T05:35:05.573Z,938.81
2022-12-01T05:36:06.185Z,938.78
2022-12-01T05:37:07.147Z,938.84
2022-12-01T05:38:08.379Z,938.81
2022-12-01T05:39:08.617Z,938.85
2022-12-01T05:40:09.528Z,938.82
2022-12-01T05:41:10.430Z,938.79
2022-12-01T05:42:10.621Z,938.83
2022-12-01T05:43:11.538Z,938.79
2022-12-01T05:44:12.205Z,938.83
2022-12-01T05:45:12.539Z,938.83
2022-12-01T05:46:13.579Z,938.79
2022-12-01T05:47:13.897Z,938.83
2022-12-01T05:48:14.799Z,938.83
2022-12-01T05:49:15.411Z,938.84
2022-12-01T05:50:16.008Z,938.85
2022-12-01T05:51:16.897Z,938.84
2022-12-01T05:52:17.571Z,938.83
2022-12-01T05:53:18.040Z,938.83
2022-12-01T05:54:18.617Z,938.84
2022-12-01T05:55:19.532Z,938.83
2022-12-01T05:56:20.426Z,938.86
2022-12-01T05:57:20.614Z,938.82
2022-12-01T05:58:21.502Z,938.86
2022-12-01T05:59:22.438Z,938.86
2022-12-01T06:00:22.752Z,938.89
2022-12-01T06:01:23.293Z,938.88
2022-12-01T06:02:23.737Z,938.92
2022-12-01T06:03:24.772Z,938.89
2022-12-01T06:04:25.073Z,938.95
2022-12-01T06:05:26.105Z,938.97
2022-12-01T06:06:27.020Z,938.95
2022-12-01T06:07:27.285Z,938.94
2022-12-01T06:08:27.899Z,938.98
2022-12-01T06:09:28.090Z,938.95
2022-12-01T06:10:28.277Z,938.94
2022-12-01T06:11:29.185Z,938.98
2022-12-01T06:12:29.532Z,939.01
2022-12-01T06:13:30.046Z,939
2022-12-01T06:14:30.362Z,938.99
2022-12-01T06:15:30.976Z,939.05
2022-12-01T06:16:31.181Z,939.06
2022-12-01T06:17:35.732Z,939.07
2022-12-01T06:18:32.996Z,939.08
2022-12-01T06:19:33.484Z,939.06
2022-12-01T06:20:33.781Z,939.05
2022-12-01T06:21:33.990Z,939.07
2022-12-01T06:22:34.243Z,939.08
2022-12-01T06:23:34.833Z,939.09
2022-12-01T06:24:35.858Z,939.06
2022-12-01T06:25:36.064Z,939.09
2022-12-01T06:26:36.968Z,939.11
2022-12-01T06:27:37.245Z,939.12
2022-12-01T06:28:37.910Z,939.12
2022-12-01T06:29:42.026Z,939.16
2022-12-01T06:30:39.694Z,939.14
2022-12-01T06:31:40.563Z,939.13
2022-12-01T06:32:40.968Z,939.16
2022-12-01T06:33:41.640Z,939.19
2022-12-01T06:34:42.342Z,939.13
2022-12-01T06:35:42.879Z,939.18
2022-12-01T06:36:43.493Z,939.15
2022-12-01T06:37:44.036Z,939.18
2022-12-01T06:38:44.236Z,939.18
2022-12-01T06:39:45.139Z,939.18
2022-12-01T06:40:45.829Z,939.22
2022-12-01T06:41:46.750Z,939.2
2022-12-01T06:42:47.344Z,939.2
2022-12-01T06:43:48.273Z,939.15
2022-12-01T06:44:48.594Z,939.14
2022-12-01T06:45:49.226Z,939.19
2022-12-01T06:46:50.004Z,939.18
2022-12-01T06:47:50.481Z,939.19
2022-12-01T06:48:50.671Z,939.16
2022-12-01T06:49:51.494Z,939.16
2022-12-01T06:50:51.725Z,939.17
2022-12-01T06:51:52.610Z,939.22
2022-12-01T06:52:52.859Z,939.21
2022-12-01T06:53:53.853Z,939.21
2022-12-01T06:54:54.613Z,939.28
2022-12-01T06:55:55.651Z,939.25
2022-12-01T06:56:56.484Z,939.22
2022-12-01T06:57:56.910Z,939.25
2022-12-01T06:58:57.158Z,939.24
2022-12-01T06:59:57.717Z,939.25
2022-12-01T07:00:58.515Z,939.25
2022-12-01T07:01:59.052Z,939.3
2022-12-01T07:02:59.824Z,939.28
2022-12-01T07:04:00.285Z,939.33
2022-12-01T07:05:00.993Z,939.3
2022-12-01T07:06:01.480Z,939.3
2022-12-01T07:07:01.821Z,939.35
2022-12-01T07:08:02.135Z,939.25
2022-12-01T07:09:02.368Z,939.3
2022-12-01T07:10:03.268Z,939.27
2022-12-01T07:11:04.242Z,939.28
2022-12-01T07:12:04.861Z,939.29
2022-12-01T07:13:05.047Z,939.33
2022-12-01T07:14:06.145Z,939.34
2022-12-01T07:15:06.213Z,939.32
2022-12-01T07:16:07.119Z,939.35
2022-12-01T07:17:08.215Z,939.31
2022-12-01T07:18:08.445Z,939.33
2022-12-01T07:19:08.657Z,939.34
2022-12-01T07:20:09.552Z,939.33
2022-12-01T07:21:10.181Z,939.32
2022-12-01T07:22:10.794Z,939.34
2022-12-01T07:23:11.205Z,939.34
2022-12-01T07:24:11.405Z,939.35
2022-12-01T07:25:11.701Z,939.34
2022-12-01T07:26:12.616Z,939.36
2022-12-01T07:27:13.535Z,939.31
2022-12-01T07:28:14.022Z,939.35
2022-12-01T07:29:14.233Z,939.35
2022-12-01T07:30:14.894Z,939.37
2022-12-01T07:31:15.239Z,939.38
2022-12-01T07:32:15.504Z,939.36
2022-12-01T07:33:15.693Z,939.37
2022-12-01T07:34:15.902Z,939.37
2022-12-01T07:35:16.900Z,939.43
2022-12-01T07:36:17.245Z,939.4
2022-12-01T07:37:17.452Z,939.47
2022-12-01T07:38:22.001Z,939.42
2022-12-01T07:39:18.178Z,939.46
2022-12-01T07:40:18.687Z,939.43
2022-12-01T07:41:18.898Z,939.46
2022-12-01T07:42:19.808Z,939.42
2022-12-01T07:43:19.998Z,939.43
2022-12-01T07:44:20.189Z,939.43
2022-12-01T07:45:20.940Z,939.4
2022-12-01T07:46:23.471Z,939.43
2022-12-01T07:47:22.014Z,939.42
2022-12-01T07:48:22.645Z,939.41
2022-12-01T07:49:23.241Z,939.4
2022-12-01T07:50:23.462Z,939.43
2022-12-01T07:51:24.372Z,939.45
2022-12-01T07:52:24.558Z,939.44
2022-12-01T07:53:24.820Z,939.42
2022-12-01T07:54:25.026Z,939.46
2022-12-01T07:55:25.323Z,939.49
2022-12-01T07:56:25.517Z,939.41
2022-12-01T07:57:25.731Z,939.43
2022-12-01T07:58:26.362Z,939.4
2022-12-01T07:59:26.572Z,939.46
2022-12-01T08:00:27.521Z,939.42
2022-12-01T08:01:28.027Z,939.41
2022-12-01T08:02:28.404Z,939.42
2022-12-01T08:03:29.385Z,939.43
2022-12-01T08:04:30.121Z,939.48
2022-12-01T08:05:30.978Z,939.42
2022-12-01T08:06:31.166Z,939.41
2022-12-01T08:07:31.739Z,939.44
2022-12-01T08:08:32.153Z,939.42
2022-12-01T08:09:32.636Z,939.45
2022-12-01T08:10:32.728Z,939.46
2022-12-01T08:11:32.993Z,939.49
2022-12-01T08:12:33.185Z,939.5
2022-12-01T08:13:33.828Z,939.47
2022-12-01T08:14:34.236Z,939.49
2022-12-01T08:15:34.841Z,939.52
2022-12-01T08:16:34.910Z,939.5
2022-12-01T08:17:35.107Z,939.48
2022-12-01T08:18:36.027Z,939.5
2022-12-01T08:19:36.241Z,939.51
2022-12-01T08:20:37.038Z,939.52
2022-12-01T08:21:37.686Z,939.51
2022-12-01T08:22:37.900Z,939.51
2022-12-01T08:23:38.171Z,939.52
2022-12-01T08:24:38.384Z,939.52
2022-12-01T08:25:38.840Z,939.54
2022-12-01T08:26:39.956Z,939.52
2022-12-01T08:27:39.605Z,939.54
2022-12-01T08:28:40.501Z,939.53
2022-12-01T08:29:41.118Z,939.53
2022-12-01T08:30:42.006Z,939.61
2022-12-01T08:31:42.760Z,939.6
2022-12-01T08:32:42.975Z,939.59
2022-12-01T08:33:43.880Z,939.6
2022-12-01T08:34:47.242Z,939.62
2022-12-01T08:35:45.601Z,939.59
2022-12-01T08:36:45.813Z,939.58
2022-12-01T08:37:46.739Z,939.58
2022-12-01T08:38:47.722Z,939.59
2022-12-01T08:39:49.045Z,939.55
2022-12-01T08:40:49.102Z,939.6
2022-12-01T08:41:50.104Z,939.61
2022-12-01T08:42:50.730Z,939.64
2022-12-01T08:43:59.541Z,939.61
2022-12-01T08:44:51.626Z,939.59
2022-12-01T08:45:52.009Z,939.67
2022-12-01T08:46:52.292Z,939.64
2022-12-01T08:47:52.463Z,939.67
2022-12-01T08:48:53.380Z,939.64
2022-12-01T08:49:54.026Z,939.64
2022-12-01T08:50:54.243Z,939.61
2022-12-01T08:51:55.173Z,939.65
2022-12-01T08:52:55.792Z,939.63
2022-12-01T08:53:56.069Z,939.62
2022-12-01T08:54:56.988Z,939.61
2022-12-01T08:55:57.577Z,939.65
2022-12-01T08:56:58.505Z,939.64
2022-12-01T08:57:59.016Z,939.64
2022-12-01T08:58:59.363Z,939.65
2022-12-01T08:59:59.581Z,939.62
2022-12-01T09:00:59.882Z,939.65
2022-12-01T09:02:05.467Z,939.67
2022-12-01T09:03:01.285Z,939.63
2022-12-01T09:04:01.918Z,939.6
2022-12-01T09:05:02.853Z,939.65
2022-12-01T09:06:03.821Z,939.66
2022-12-01T09:07:04.774Z,939.7
2022-12-01T09:08:05.791Z,939.68
2022-12-01T09:09:06.665Z,939.69
2022-12-01T09:10:06.899Z,939.7
2022-12-01T09:11:07.094Z,939.72
2022-12-01T09:12:07.988Z,939.72
2022-12-01T09:13:08.927Z,939.73
2022-12-01T09:14:09.527Z,939.72
2022-12-01T09:15:10.284Z,939.72
2022-12-01T09:16:10.958Z,939.72
2022-12-01T09:17:11.578Z,939.74
2022-12-01T09:18:12.054Z,939.74
2022-12-01T09:19:13.396Z,939.78
2022-12-01T09:20:14.307Z,939.74
2022-12-01T09:21:14.526Z,939.73
2022-12-01T09:22:15.424Z,939.73
2022-12-01T09:23:15.612Z,939.71
2022-12-01T09:24:16.180Z,939.73
2022-12-01T09:25:17.083Z,939.69
2022-12-01T09:26:17.850Z,939.72
2022-12-01T09:27:17.947Z,939.66
2022-12-01T09:28:18.466Z,939.65
2022-12-01T09:29:19.387Z,939.71
2022-12-01T09:30:20.314Z,939.68
2022-12-01T09:31:21.106Z,939.7
2022-12-01T09:32:21.226Z,939.69
2022-12-01T09:33:21.760Z,939.71
2022-12-01T09:34:22.690Z,939.72
2022-12-01T09:35:23.636Z,939.68
2022-12-01T09:36:23.863Z,939.68
2022-12-01T09:37:24.839Z,939.71
2022-12-01T09:38:25.826Z,939.65
2022-12-01T09:39:26.147Z,939.65
2022-12-01T09:40:26.342Z,939.68
2022-12-01T09:41:26.844Z,939.64
2022-12-01T09:42:30.796Z,939.67
2022-12-01T09:43:27.426Z,939.64
2022-12-01T09:44:28.121Z,939.67
2022-12-01T09:45:28.762Z,939.66
2022-12-01T09:46:29.288Z,939.65
2022-12-01T09:47:29.666Z,939.65
2022-12-01T09:48:30.158Z,939.63
2022-12-01T09:49:31.089Z,939.59
2022-12-01T09:50:31.853Z,939.59
2022-12-01T09:51:32.855Z,939.6
2022-12-01T09:52:33.770Z,939.56
2022-12-01T09:53:33.960Z,939.55
2022-12-01T09:54:34.510Z,939.53
2022-12-01T09:55:34.767Z,939.57
2022-12-01T09:56:35.305Z,939.56
2022-12-01T09:57:35.497Z,939.52
2022-12-01T09:58:35.710Z,939.56
2022-12-01T09:59:35.918Z,939.53
2022-12-01T10:00:37.009Z,939.56
2022-12-01T10:01:37.698Z,939.51
2022-12-01T10:02:38.221Z,939.51
2022-12-01T10:03:39.076Z,939.48
2022-12-01T10:04:39.708Z,939.48
2022-12-01T10:05:51.422Z,939.47
2022-12-01T10:07:20.976Z,939.47
2022-12-01T10:08:26.765Z,939.47
2022-12-01T10:09:22.212Z,939.43
2022-12-01T10:10:23.319Z,939.41
2022-12-01T10:11:23.810Z,939.43
2022-12-01T10:12:24.314Z,939.39
2022-12-01T10:13:25.247Z,939.39
2022-12-01T10:14:26.214Z,939.36
2022-12-01T10:15:26.550Z,939.37
2022-12-01T10:16:26.792Z,939.41
2022-12-01T10:17:27.708Z,939.37
2022-12-01T10:18:28.616Z,939.38
2022-12-01T10:19:29.242Z,939.35
2022-12-01T10:20:29.867Z,939.34
2022-12-01T10:21:30.765Z,939.33
2022-12-01T10:22:31.042Z,939.34
2022-12-01T10:23:31.991Z,939.28
2022-12-01T10:24:32.937Z,939.29
2022-12-01T10:25:33.514Z,939.28
2022-12-01T10:26:33.997Z,939.3
2022-12-01T10:27:35.026Z,939.3
2022-12-01T10:28:35.946Z,939.33
2022-12-01T10:29:36.435Z,939.29
2022-12-01T10:30:37.193Z,939.26
2022-12-01T10:31:37.750Z,939.26
2022-12-01T10:32:38.761Z,939.29
2022-12-01T10:33:38.956Z,939.33
2022-12-01T10:34:39.442Z,939.27
2022-12-01T10:35:40.075Z,939.25
2022-12-01T10:36:41.018Z,939.29
2022-12-01T10:37:41.799Z,939.27
2022-12-01T10:38:42.339Z,939.24
2022-12-01T10:39:42.535Z,939.23
2022-12-01T10:40:42.992Z,939.2
2022-12-01T10:41:43.206Z,939.2
2022-12-01T10:42:44.120Z,939.23
2022-12-01T10:43:44.620Z,939.23
2022-12-01T10:44:44.887Z,939.23
2022-12-01T10:45:45.618Z,939.2
2022-12-01T10:46:45.899Z,939.23
2022-12-01T10:47:46.227Z,939.22
2022-12-01T10:48:47.130Z,939.23
2022-12-01T10:49:48.448Z,939.17
2022-12-01T10:50:48.581Z,939.2
2022-12-01T10:51:49.079Z,939.21
2022-12-01T10:52:49.286Z,939.16
2022-12-01T10:53:49.909Z,939.21
2022-12-01T10:54:50.810Z,939.23
2022-12-01T10:55:51.461Z,939.18
2022-12-01T10:56:51.957Z,939.2
2022-12-01T10:57:52.385Z,939.18
2022-12-01T10:58:53.060Z,939.13
2022-12-01T10:59:53.301Z,939.17
2022-12-01T11:01:01.621Z,939.16
2022-12-01T11:01:54.661Z,939.14
2022-12-01T11:02:55.483Z,939.16
2022-12-01T11:03:55.502Z,939.12
2022-12-01T11:04:55.577Z,939.15
2022-12-01T11:05:56.068Z,939.11
2022-12-01T11:06:56.360Z,939.12
2022-12-01T11:07:57.340Z,939.09
2022-12-01T11:08:57.626Z,939.08
2022-12-01T11:09:57.841Z,939.09
2022-12-01T11:10:58.109Z,939.1
2022-12-01T11:11:58.352Z,939.03
2022-12-01T11:12:59.343Z,939.05
2022-12-01T11:13:59.880Z,939.06
2022-12-01T11:15:00.934Z,939.04
2022-12-01T11:16:01.928Z,939.02
2022-12-01T11:17:02.203Z,939
2022-12-01T11:18:02.552Z,939.02
2022-12-01T11:19:02.817Z,938.99
2022-12-01T11:20:03.487Z,938.97
2022-12-01T11:21:04.135Z,938.96
2022-12-01T11:22:05.027Z,938.96
2022-12-01T11:23:05.980Z,938.97
2022-12-01T11:24:06.322Z,938.98
2022-12-01T11:25:06.536Z,938.99
2022-12-01T11:26:06.823Z,938.98
2022-12-01T11:27:07.750Z,938.95
2022-12-01T11:28:07.973Z,938.96
2022-12-01T11:29:08.163Z,938.92
2022-12-01T11:30:08.784Z,938.97
2022-12-01T11:31:09.113Z,938.91
2022-12-01T11:32:09.651Z,938.93
2022-12-01T11:33:10.335Z,938.95
2022-12-01T11:34:10.690Z,938.93
2022-12-01T11:35:11.671Z,938.95
2022-12-01T11:36:16.126Z,938.98
2022-12-01T11:37:13.164Z,939
2022-12-01T11:38:30.822Z,938.97
2022-12-01T11:39:31.145Z,938.98
2022-12-01T11:40:32.035Z,938.96
2022-12-01T11:41:32.601Z,938.99
2022-12-01T11:42:33.231Z,938.99
2022-12-01T11:43:33.721Z,938.91
2022-12-01T11:45:35.028Z,938.97
2022-12-01T11:46:35.161Z,938.92
2022-12-01T11:47:35.809Z,938.92
2022-12-01T11:48:36.682Z,938.93
2022-12-01T11:49:36.934Z,938.91
2022-12-01T11:50:37.544Z,938.9
2022-12-01T11:51:38.479Z,938.9
2022-12-01T11:52:38.684Z,938.87
2022-12-01T11:53:39.615Z,938.87
2022-12-01T11:54:40.246Z,938.86
2022-12-01T11:55:40.763Z,938.89
2022-12-01T11:56:41.355Z,938.84
2022-12-01T11:57:43.259Z,938.85
2022-12-01T11:58:44.210Z,938.87
2022-12-01T11:59:45.012Z,938.83
2022-12-01T12:00:45.550Z,938.83
2022-12-01T12:01:45.768Z,938.82
2022-12-01T12:02:46.210Z,938.87
2022-12-01T12:03:47.096Z,938.91
2022-12-01T12:04:47.717Z,938.87
2022-12-01T12:05:48.761Z,938.84
2022-12-01T12:06:49.680Z,938.81
2022-12-01T12:07:50.393Z,938.85
2022-12-01T12:08:50.772Z,938.83
2022-12-01T12:09:51.313Z,938.8
2022-12-01T12:10:51.606Z,938.81
2022-12-01T12:11:52.488Z,938.78
2022-12-01T12:12:53.302Z,938.84
2022-12-01T12:13:53.784Z,938.81
2022-12-01T12:14:54.193Z,938.84
2022-12-01T12:15:54.709Z,938.84
2022-12-01T12:16:55.527Z,938.83
2022-12-01T12:17:55.838Z,938.8
2022-12-01T12:18:55.916Z,938.81
2022-12-01T12:20:12.135Z,938.82
2022-12-01T12:20:56.638Z,938.86
2022-12-01T12:21:56.761Z,938.82
2022-12-01T12:22:57.755Z,938.81
2022-12-01T12:23:58.037Z,938.81
2022-12-01T12:24:58.694Z,938.81
2022-12-01T12:25:59.505Z,938.79
2022-12-01T12:27:00.096Z,938.8
2022-12-01T12:28:00.288Z,938.83
2022-12-01T12:29:01.364Z,938.82
2022-12-01T12:30:01.490Z,938.8
2022-12-01T12:31:02.517Z,938.82
2022-12-01T12:32:02.974Z,938.8
2022-12-01T12:33:03.636Z,938.79
2022-12-01T12:34:03.900Z,938.79
2022-12-01T12:35:04.836Z,938.8
2022-12-01T12:36:05.058Z,938.76
2022-12-01T12:37:05.989Z,938.78
2022-12-01T12:38:06.509Z,938.77
2022-12-01T12:39:07.619Z,938.74
2022-12-01T12:40:07.563Z,938.78